Navigator Of The Seas — C6FU4 — position and weather

sailwx.info

Track history (hours):
 
Tides and Currents Weather Stations Pressure Air Temp Water Temp Dewpoint Dewpoint Depression Visibility Wind Speed Wind Dir Waves Ship Positions

Navigator Of The Seas

Operator: Royal Caribbean Cruises Ltd

Last reported at 2019-Jun-15 21:00 UTC. Time now 2019-Jun-16 15:03 UTC.
Position N 25°48' W 077°54'.

Type: Passenger vessel. MMSI: 311478000.

Wind from 130 at 9 knots

Air temperature 28.0 ° C
Visibility: greater than 5.4 NM

Date/timePositionNaut miles runAvg speedWind from/ knotsBaromVisibWave heightAir tempDewpointWater temp
2019-Jun-15 21:00N 25°48' W 077°54'76 4.2 130 / 9 5.4 28.0
2019-Jun-15 03:05N 26°16' W 079°12'110.2
2019-Jun-15 03:00N 26°15' W 079°13'510.1
2019-Jun-15 02:31N 26°13' W 079°18'510.3
2019-Jun-15 02:00N 26°10' W 079°23'4 8.7
2019-Jun-15 01:30N 26°07' W 079°27'4 7.8
2019-Jun-15 01:00N 26°05' W 079°30'4 8.4
2019-Jun-15 00:31N 26°03' W 079°34'4 8.4
2019-Jun-15 00:01N 26°01' W 079°38'5 9.3
2019-Jun-14 23:30N 25°58' W 079°43'5 9.3
2019-Jun-14 23:00N 25°56' W 079°47'612.0
2019-Jun-14 22:30N 25°52' W 079°53'815.6
2019-Jun-14 22:00N 25°48' W 079°60'611.6
2019-Jun-14 21:30N 25°46' W 080°06'3 6.8
2019-Jun-14 21:00N 25°46' W 080°09'5325.4
2019-Jun-14 21:00N 25°42' W 080°06'510.8 090 / 51024.2 5.4
2019-Jun-14 20:30N 25°46' W 080°09'0 0.0
2019-Jun-14 20:00N 25°46' W 080°09'0 0.0
2019-Jun-14 19:30N 25°46' W 080°09'0 0.0
2019-Jun-14 19:00N 25°46' W 080°09'0 0.0
2019-Jun-14 18:27N 25°46' W 080°09'0 0.0
2019-Jun-14 18:00N 25°46' W 080°09'0 0.0
2019-Jun-14 17:30N 25°46' W 080°09'0 0.0
2019-Jun-14 17:00N 25°46' W 080°09'0 0.0
2019-Jun-14 16:30N 25°46' W 080°09'0 0.0
2019-Jun-14 16:00N 25°46' W 080°09'0 0.0
2019-Jun-14 15:30N 25°46' W 080°09'0 0.0
2019-Jun-14 15:00N 25°46' W 080°09'0 0.0
2019-Jun-14 14:30N 25°46' W 080°09'0 0.0
2019-Jun-14 14:00N 25°46' W 080°09'0 0.0
2019-Jun-14 13:30N 25°46' W 080°09'0 0.0
2019-Jun-14 13:00N 25°46' W 080°09'0 0.0
2019-Jun-14 12:30N 25°46' W 080°09'0 0.0
2019-Jun-14 12:00N 25°46' W 080°09'0 0.0
2019-Jun-14 11:30N 25°46' W 080°09'0 0.0
2019-Jun-14 11:00N 25°46' W 080°09'1 1.4
2019-Jun-14 10:30N 25°47' W 080°10'0 1.0
2019-Jun-14 10:00N 25°47' W 080°11'4 8.7
2019-Jun-14 09:30N 25°46' W 080°06'4 8.6
2019-Jun-14 09:00N 25°47' W 080°01'3 6.7
2019-Jun-14 08:30N 25°47' W 079°58'3 6.4
2019-Jun-14 08:00N 25°47' W 079°54'3 5.9
2019-Jun-14 07:30N 25°47' W 079°51'3 5.4
2019-Jun-14 07:00N 25°47' W 079°48'3 5.7
2019-Jun-14 06:30N 25°47' W 079°45'3 6.4
2019-Jun-14 06:00N 25°47' W 079°41'510.4
2019-Jun-14 05:30N 25°41' W 079°41'613.0
2019-Jun-14 05:00N 25°35' W 079°40'510.2
2019-Jun-14 04:30N 25°30' W 079°40'510.0
2019-Jun-14 04:00N 25°25' W 079°40'5 9.7
2019-Jun-14 03:30N 25°20' W 079°39'5 9.5
2019-Jun-14 03:00N 25°15' W 079°39'5 9.0
2019-Jun-14 02:24N 25°10' W 079°39'13 1.9
2019-Jun-13 19:24N 25°22' W 079°34'3 6.5
2019-Jun-13 18:57N 25°25' W 079°35'3 6.4
2019-Jun-13 18:30N 25°28' W 079°35'3 6.2
2019-Jun-13 18:00N 25°31' W 079°35'3 6.0
2019-Jun-13 17:30N 25°34' W 079°35'3 5.9
2019-Jun-13 17:00N 25°37' W 079°36'3 5.8
2019-Jun-13 16:30N 25°40' W 079°36'3 5.6
2019-Jun-13 16:00N 25°43' W 079°36'3 6.0
2019-Jun-13 15:30N 25°45' W 079°35'3 6.2
2019-Jun-13 15:00N 25°48' W 079°34'3 6.2
2019-Jun-13 14:30N 25°51' W 079°32'3 6.2
2019-Jun-13 14:00N 25°54' W 079°31'3 6.2
2019-Jun-13 13:30N 25°57' W 079°29'3 5.7
2019-Jun-13 13:00N 25°59' W 079°28'4 7.0
2019-Jun-13 12:30N 26°02' W 079°26'4 7.3
2019-Jun-13 12:00N 26°06' W 079°24'4 7.2
2019-Jun-13 11:30N 26°09' W 079°23'3 6.6
2019-Jun-13 11:00N 26°12' W 079°21'3 6.2
2019-Jun-13 10:30N 26°13' W 079°18'3 6.4
2019-Jun-13 10:00N 26°15' W 079°15'6632.9
2019-Jun-13 08:00N 25°12' W 078°54'6479.1 160 / 91023.210.8 25.0
2019-Jun-13 07:11N 26°16' W 078°54'61 6.0
2019-Jun-12 21:00N 25°48' W 077°54'53 2.7 130 / 51022.2 28.0
2019-Jun-12 01:00N 25°06' W 077°18'122 5.1 090 / 101023.2 5.4
2019-Jun-11 01:16N 26°07' W 079°15'615.5
2019-Jun-11 00:53N 26°05' W 079°21'512.6
2019-Jun-11 00:31N 26°03' W 079°26'612.3
2019-Jun-11 00:00N 25°60' W 079°32'713.5
2019-Jun-10 23:30N 25°57' W 079°38'714.1
2019-Jun-10 23:00N 25°54' W 079°45'714.7
2019-Jun-10 22:30N 25°51' W 079°53'715.0
2019-Jun-10 22:00N 25°48' W 080°00'030.0
2019-Jun-10 22:00N 25°48' W 080°00'713.8 180 / 51022.2 5.4
2019-Jun-10 21:30N 25°45' W 080°07'4 7.9
2019-Jun-10 21:01N 25°47' W 080°11'1 2.4
2019-Jun-10 20:27N 25°46' W 080°10'0 0.0
2019-Jun-10 20:00N 25°46' W 080°10'0 0.0
2019-Jun-10 19:30N 25°46' W 080°10'0 0.0
2019-Jun-10 19:00N 25°46' W 080°10'0 0.0
2019-Jun-10 18:30N 25°46' W 080°10'0 0.0
2019-Jun-10 18:00N 25°46' W 080°10'0 0.0
2019-Jun-10 17:30N 25°46' W 080°10'0 0.0
2019-Jun-10 17:00N 25°46' W 080°10'0 0.0
2019-Jun-10 16:30N 25°46' W 080°10'0 0.0
2019-Jun-10 16:00N 25°46' W 080°10'0 0.0
2019-Jun-10 15:30N 25°46' W 080°10'0 0.0
2019-Jun-10 15:00N 25°46' W 080°10'0 0.0
2019-Jun-10 14:30N 25°46' W 080°10'0 0.0
2019-Jun-10 14:00N 25°46' W 080°10'0 0.0
2019-Jun-10 13:30N 25°46' W 080°10'0 0.0
2019-Jun-10 13:00N 25°46' W 080°10'0 0.0
2019-Jun-10 12:30N 25°46' W 080°10'0 0.0
2019-Jun-10 12:00N 25°46' W 080°10'0 0.0
2019-Jun-10 11:30N 25°46' W 080°10'0 0.0
2019-Jun-10 11:00N 25°46' W 080°10'0 0.0
2019-Jun-10 10:28N 25°46' W 080°10'1 2.6
2019-Jun-10 10:00N 25°46' W 080°08'611.8
2019-Jun-10 09:30N 25°47' W 080°02'3 7.0
2019-Jun-10 09:00N 25°49' W 079°59'510.9
2019-Jun-10 08:30N 25°51' W 079°53'714.9
2019-Jun-10 08:00N 25°54' W 079°45'815.8
2019-Jun-10 07:30N 25°57' W 079°37'816.4
2019-Jun-10 07:00N 26°01' W 079°29'917.1
2019-Jun-10 06:29N 26°05' W 079°20'12514.7
2019-Jun-09 22:00N 25°06' W 077°18'53 2.0 1022.2 28.0
2019-Jun-08 20:00N 25°48' W 077°54'12 1.1 1020.2 5.4 30.0
2019-Jun-08 09:00N 25°54' W 078°06'4411.1 180 / 121018.2 24.023.626.8
2019-Jun-08 05:03N 26°14' W 078°50'011.0
2019-Jun-08 05:00N 26°14' W 078°50'611.2
2019-Jun-08 04:30N 26°17' W 078°56'510.1
2019-Jun-08 03:59N 26°17' W 079°01'5 9.9
2019-Jun-08 03:27N 26°17' W 079°07'510.1
2019-Jun-08 03:00N 26°16' W 079°12'510.9
2019-Jun-08 02:31N 26°13' W 079°17'510.9
2019-Jun-08 02:01N 26°10' W 079°22'4260.9
2019-Jun-08 02:00N 26°12' W 079°18'817.5 200 / 51019.210.8 23.0 27.0
2019-Jun-08 01:31N 26°07' W 079°26'4 8.4
2019-Jun-08 01:01N 26°05' W 079°30'4 8.4
2019-Jun-08 00:31N 26°03' W 079°34'4 8.5
2019-Jun-08 00:00N 26°00' W 079°38'4 8.7
2019-Jun-07 23:31N 25°58' W 079°42'5 9.5
2019-Jun-07 23:00N 25°56' W 079°46'510.5
2019-Jun-07 22:31N 25°53' W 079°52'510.9
2019-Jun-07 22:01N 25°50' W 079°57'510.1
2019-Jun-07 21:31N 25°48' W 080°02'5 9.4
2019-Jun-07 21:01N 25°46' W 080°06'3 5.8
2019-Jun-07 20:28N 25°46' W 080°09'0 0.0
2019-Jun-07 19:58N 25°46' W 080°09'0 0.0
2019-Jun-07 19:28N 25°46' W 080°09'0 0.0
2019-Jun-07 18:58N 25°46' W 080°09'0 0.0
2019-Jun-07 18:25N 25°46' W 080°09'0 0.0
2019-Jun-07 17:58N 25°46' W 080°09'0 0.0
2019-Jun-07 17:28N 25°46' W 080°09'0 0.0
2019-Jun-07 16:58N 25°46' W 080°09'0 0.0
2019-Jun-07 16:28N 25°46' W 080°09'0 0.0
2019-Jun-07 15:55N 25°46' W 080°09'0 0.0
2019-Jun-07 15:25N 25°46' W 080°09'0 0.0
2019-Jun-07 14:58N 25°46' W 080°09'0 0.0
2019-Jun-07 14:28N 25°46' W 080°09'0 0.0
2019-Jun-07 13:55N 25°46' W 080°09'0 0.0
2019-Jun-07 13:28N 25°46' W 080°09'0 0.0
2019-Jun-07 12:58N 25°46' W 080°09'0 0.0
2019-Jun-07 12:28N 25°46' W 080°09'0 0.0
2019-Jun-07 11:58N 25°46' W 080°09'0 0.0
2019-Jun-07 11:28N 25°46' W 080°09'0 0.0
2019-Jun-07 10:58N 25°46' W 080°09'0 0.0
2019-Jun-07 10:28N 25°46' W 080°09'0 0.0
2019-Jun-07 09:58N 25°46' W 080°09'1 3.1
2019-Jun-07 09:31N 25°47' W 080°11'2 3.2
2019-Jun-07 09:01N 25°46' W 080°09'5 9.1
2019-Jun-07 08:30N 25°46' W 080°04'5 9.6
2019-Jun-07 08:00N 25°47' W 079°59'510.4
2019-Jun-07 07:30N 25°47' W 079°53'510.5
2019-Jun-07 07:00N 25°47' W 079°47'510.2
2019-Jun-07 06:30N 25°47' W 079°42'611.2
2019-Jun-07 06:00N 25°41' W 079°41'611.9
2019-Jun-07 05:30N 25°35' W 079°40'611.9
2019-Jun-07 05:00N 25°29' W 079°40'611.9
2019-Jun-07 04:30N 25°23' W 079°40'611.8
2019-Jun-07 03:59N 25°17' W 079°40'8 1.1
2019-Jun-06 20:33N 25°24' W 079°34'0 7.4
2019-Jun-06 20:29N 25°24' W 079°34'4 7.4
2019-Jun-06 19:59N 25°28' W 079°35'4 7.3
2019-Jun-06 19:30N 25°31' W 079°35'4 7.2
2019-Jun-06 18:59N 25°35' W 079°36'3 7.1
2019-Jun-06 18:30N 25°39' W 079°36'4 7.1
2019-Jun-06 18:00N 25°42' W 079°36'3 7.0
2019-Jun-06 17:30N 25°46' W 079°35'4 7.4
2019-Jun-06 17:00N 25°49' W 079°34'4 7.5
2019-Jun-06 16:30N 25°52' W 079°32'4 7.7
2019-Jun-06 16:00N 25°56' W 079°30'4 7.9
2019-Jun-06 15:29N 25°59' W 079°28'4 7.3
2019-Jun-06 15:00N 26°03' W 079°26'4 7.3
2019-Jun-06 14:30N 26°06' W 079°24'4 7.4
2019-Jun-06 14:00N 26°09' W 079°22'5 9.9
2019-Jun-06 13:30N 26°13' W 079°19'107 9.3
2019-Jun-06 02:00N 25°18' W 077°36'   090 / 161023.2 27.0
Track history (hours):
 
Tides and Currents Weather Stations Pressure Air Temp Water Temp Dewpoint Dewpoint Depression Visibility Wind Speed Wind Dir Waves Ship Positions

Navigator Of The Seas

Operator: Royal Caribbean Cruises Ltd

Last reported at 2019-Jun-15 21:00 UTC. Time now 2019-Jun-16 15:03 UTC.
Position N 25°48' W 077°54'.

Type: Passenger vessel. MMSI: 311478000.

Wind from 130 at 9 knots

Air temperature 28.0 ° C
Visibility: greater than 5.4 NM

Date/timePositionNaut miles runAvg speedWind from/ knotsBaromVisibWave heightAir tempDewpointWater temp
2019-Jun-15 21:00N 25°48' W 077°54'76 4.2 130 / 9 5.4 28.0
2019-Jun-15 03:05N 26°16' W 079°12'110.2
2019-Jun-15 03:00N 26°15' W 079°13'510.1
2019-Jun-15 02:31N 26°13' W 079°18'510.3
2019-Jun-15 02:00N 26°10' W 079°23'4 8.7
2019-Jun-15 01:30N 26°07' W 079°27'4 7.8
2019-Jun-15 01:00N 26°05' W 079°30'4 8.4
2019-Jun-15 00:31N 26°03' W 079°34'4 8.4
2019-Jun-15 00:01N 26°01' W 079°38'5 9.3
2019-Jun-14 23:30N 25°58' W 079°43'5 9.3
2019-Jun-14 23:00N 25°56' W 079°47'612.0
2019-Jun-14 22:30N 25°52' W 079°53'815.6
2019-Jun-14 22:00N 25°48' W 079°60'611.6
2019-Jun-14 21:30N 25°46' W 080°06'3 6.8
2019-Jun-14 21:00N 25°46' W 080°09'5325.4
2019-Jun-14 21:00N 25°42' W 080°06'510.8 090 / 51024.2 5.4
2019-Jun-14 20:30N 25°46' W 080°09'0 0.0
2019-Jun-14 20:00N 25°46' W 080°09'0 0.0
2019-Jun-14 19:30N 25°46' W 080°09'0 0.0
2019-Jun-14 19:00N 25°46' W 080°09'0 0.0
2019-Jun-14 18:27N 25°46' W 080°09'0 0.0
2019-Jun-14 18:00N 25°46' W 080°09'0 0.0
2019-Jun-14 17:30N 25°46' W 080°09'0 0.0
2019-Jun-14 17:00N 25°46' W 080°09'0 0.0
2019-Jun-14 16:30N 25°46' W 080°09'0 0.0
2019-Jun-14 16:00N 25°46' W 080°09'0 0.0
2019-Jun-14 15:30N 25°46' W 080°09'0 0.0
2019-Jun-14 15:00N 25°46' W 080°09'0 0.0
2019-Jun-14 14:30N 25°46' W 080°09'0 0.0
2019-Jun-14 14:00N 25°46' W 080°09'0 0.0
2019-Jun-14 13:30N 25°46' W 080°09'0 0.0
2019-Jun-14 13:00N 25°46' W 080°09'0 0.0
2019-Jun-14 12:30N 25°46' W 080°09'0 0.0
2019-Jun-14 12:00N 25°46' W 080°09'0 0.0
2019-Jun-14 11:30N 25°46' W 080°09'0 0.0
2019-Jun-14 11:00N 25°46' W 080°09'1 1.4
2019-Jun-14 10:30N 25°47' W 080°10'0 1.0
2019-Jun-14 10:00N 25°47' W 080°11'4 8.7
2019-Jun-14 09:30N 25°46' W 080°06'4 8.6
2019-Jun-14 09:00N 25°47' W 080°01'3 6.7
2019-Jun-14 08:30N 25°47' W 079°58'3 6.4
2019-Jun-14 08:00N 25°47' W 079°54'3 5.9
2019-Jun-14 07:30N 25°47' W 079°51'3 5.4
2019-Jun-14 07:00N 25°47' W 079°48'3 5.7
2019-Jun-14 06:30N 25°47' W 079°45'3 6.4
2019-Jun-14 06:00N 25°47' W 079°41'510.4
2019-Jun-14 05:30N 25°41' W 079°41'613.0
2019-Jun-14 05:00N 25°35' W 079°40'510.2
2019-Jun-14 04:30N 25°30' W 079°40'510.0
2019-Jun-14 04:00N 25°25' W 079°40'5 9.7
2019-Jun-14 03:30N 25°20' W 079°39'5 9.5
2019-Jun-14 03:00N 25°15' W 079°39'5 9.0
2019-Jun-14 02:24N 25°10' W 079°39'13 1.9
2019-Jun-13 19:24N 25°22' W 079°34'3 6.5
2019-Jun-13 18:57N 25°25' W 079°35'3 6.4
2019-Jun-13 18:30N 25°28' W 079°35'3 6.2
2019-Jun-13 18:00N 25°31' W 079°35'3 6.0
2019-Jun-13 17:30N 25°34' W 079°35'3 5.9
2019-Jun-13 17:00N 25°37' W 079°36'3 5.8
2019-Jun-13 16:30N 25°40' W 079°36'3 5.6
2019-Jun-13 16:00N 25°43' W 079°36'3 6.0
2019-Jun-13 15:30N 25°45' W 079°35'3 6.2
2019-Jun-13 15:00N 25°48' W 079°34'3 6.2
2019-Jun-13 14:30N 25°51' W 079°32'3 6.2
2019-Jun-13 14:00N 25°54' W 079°31'3 6.2
2019-Jun-13 13:30N 25°57' W 079°29'3 5.7
2019-Jun-13 13:00N 25°59' W 079°28'4 7.0
2019-Jun-13 12:30N 26°02' W 079°26'4 7.3
2019-Jun-13 12:00N 26°06' W 079°24'4 7.2
2019-Jun-13 11:30N 26°09' W 079°23'3 6.6
2019-Jun-13 11:00N 26°12' W 079°21'3 6.2
2019-Jun-13 10:30N 26°13' W 079°18'3 6.4
2019-Jun-13 10:00N 26°15' W 079°15'6632.9
2019-Jun-13 08:00N 25°12' W 078°54'6479.1 160 / 91023.210.8 25.0
2019-Jun-13 07:11N 26°16' W 078°54'61 6.0
2019-Jun-12 21:00N 25°48' W 077°54'53 2.7 130 / 51022.2 28.0
2019-Jun-12 01:00N 25°06' W 077°18'122 5.1 090 / 101023.2 5.4
2019-Jun-11 01:16N 26°07' W 079°15'615.5
2019-Jun-11 00:53N 26°05' W 079°21'512.6
2019-Jun-11 00:31N 26°03' W 079°26'612.3
2019-Jun-11 00:00N 25°60' W 079°32'713.5
2019-Jun-10 23:30N 25°57' W 079°38'714.1
2019-Jun-10 23:00N 25°54' W 079°45'714.7
2019-Jun-10 22:30N 25°51' W 079°53'715.0
2019-Jun-10 22:00N 25°48' W 080°00'030.0
2019-Jun-10 22:00N 25°48' W 080°00'713.8 180 / 51022.2 5.4
2019-Jun-10 21:30N 25°45' W 080°07'4 7.9
2019-Jun-10 21:01N 25°47' W 080°11'1 2.4
2019-Jun-10 20:27N 25°46' W 080°10'0 0.0
2019-Jun-10 20:00N 25°46' W 080°10'0 0.0
2019-Jun-10 19:30N 25°46' W 080°10'0 0.0
2019-Jun-10 19:00N 25°46' W 080°10'0 0.0
2019-Jun-10 18:30N 25°46' W 080°10'0 0.0
2019-Jun-10 18:00N 25°46' W 080°10'0 0.0
2019-Jun-10 17:30N 25°46' W 080°10'0 0.0
2019-Jun-10 17:00N 25°46' W 080°10'0 0.0
2019-Jun-10 16:30N 25°46' W 080°10'0 0.0
2019-Jun-10 16:00N 25°46' W 080°10'0 0.0
2019-Jun-10 15:30N 25°46' W 080°10'0 0.0
2019-Jun-10 15:00N 25°46' W 080°10'0 0.0
2019-Jun-10 14:30N 25°46' W 080°10'0 0.0
2019-Jun-10 14:00N 25°46' W 080°10'0 0.0
2019-Jun-10 13:30N 25°46' W 080°10'0 0.0
2019-Jun-10 13:00N 25°46' W 080°10'0 0.0
2019-Jun-10 12:30N 25°46' W 080°10'0 0.0
2019-Jun-10 12:00N 25°46' W 080°10'0 0.0
2019-Jun-10 11:30N 25°46' W 080°10'0 0.0
2019-Jun-10 11:00N 25°46' W 080°10'0 0.0
2019-Jun-10 10:28N 25°46' W 080°10'1 2.6
2019-Jun-10 10:00N 25°46' W 080°08'611.8
2019-Jun-10 09:30N 25°47' W 080°02'3 7.0
2019-Jun-10 09:00N 25°49' W 079°59'510.9
2019-Jun-10 08:30N 25°51' W 079°53'714.9
2019-Jun-10 08:00N 25°54' W 079°45'815.8
2019-Jun-10 07:30N 25°57' W 079°37'816.4
2019-Jun-10 07:00N 26°01' W 079°29'917.1
2019-Jun-10 06:29N 26°05' W 079°20'12514.7
2019-Jun-09 22:00N 25°06' W 077°18'53 2.0 1022.2 28.0
2019-Jun-08 20:00N 25°48' W 077°54'12 1.1 1020.2 5.4 30.0
2019-Jun-08 09:00N 25°54' W 078°06'4411.1 180 / 121018.2 24.023.626.8
2019-Jun-08 05:03N 26°14' W 078°50'011.0
2019-Jun-08 05:00N 26°14' W 078°50'611.2
2019-Jun-08 04:30N 26°17' W 078°56'510.1
2019-Jun-08 03:59N 26°17' W 079°01'5 9.9
2019-Jun-08 03:27N 26°17' W 079°07'510.1
2019-Jun-08 03:00N 26°16' W 079°12'510.9
2019-Jun-08 02:31N 26°13' W 079°17'510.9
2019-Jun-08 02:01N 26°10' W 079°22'4260.9
2019-Jun-08 02:00N 26°12' W 079°18'817.5 200 / 51019.210.8 23.0 27.0
2019-Jun-08 01:31N 26°07' W 079°26'4 8.4
2019-Jun-08 01:01N 26°05' W 079°30'4 8.4
2019-Jun-08 00:31N 26°03' W 079°34'4 8.5
2019-Jun-08 00:00N 26°00' W 079°38'4 8.7
2019-Jun-07 23:31N 25°58' W 079°42'5 9.5
2019-Jun-07 23:00N 25°56' W 079°46'510.5
2019-Jun-07 22:31N 25°53' W 079°52'510.9
2019-Jun-07 22:01N 25°50' W 079°57'510.1
2019-Jun-07 21:31N 25°48' W 080°02'5 9.4
2019-Jun-07 21:01N 25°46' W 080°06'3 5.8
2019-Jun-07 20:28N 25°46' W 080°09'0 0.0
2019-Jun-07 19:58N 25°46' W 080°09'0 0.0
2019-Jun-07 19:28N 25°46' W 080°09'0 0.0
2019-Jun-07 18:58N 25°46' W 080°09'0 0.0
2019-Jun-07 18:25N 25°46' W 080°09'0 0.0
2019-Jun-07 17:58N 25°46' W 080°09'0 0.0
2019-Jun-07 17:28N 25°46' W 080°09'0 0.0
2019-Jun-07 16:58N 25°46' W 080°09'0 0.0
2019-Jun-07 16:28N 25°46' W 080°09'0 0.0
2019-Jun-07 15:55N 25°46' W 080°09'0 0.0
2019-Jun-07 15:25N 25°46' W 080°09'0 0.0
2019-Jun-07 14:58N 25°46' W 080°09'0 0.0
2019-Jun-07 14:28N 25°46' W 080°09'0 0.0
2019-Jun-07 13:55N 25°46' W 080°09'0 0.0
2019-Jun-07 13:28N 25°46' W 080°09'0 0.0
2019-Jun-07 12:58N 25°46' W 080°09'0 0.0
2019-Jun-07 12:28N 25°46' W 080°09'0 0.0
2019-Jun-07 11:58N 25°46' W 080°09'0 0.0
2019-Jun-07 11:28N 25°46' W 080°09'0 0.0
2019-Jun-07 10:58N 25°46' W 080°09'0 0.0
2019-Jun-07 10:28N 25°46' W 080°09'0 0.0
2019-Jun-07 09:58N 25°46' W 080°09'1 3.1
2019-Jun-07 09:31N 25°47' W 080°11'2 3.2
2019-Jun-07 09:01N 25°46' W 080°09'5 9.1
2019-Jun-07 08:30N 25°46' W 080°04'5 9.6
2019-Jun-07 08:00N 25°47' W 079°59'510.4
2019-Jun-07 07:30N 25°47' W 079°53'510.5
2019-Jun-07 07:00N 25°47' W 079°47'510.2
2019-Jun-07 06:30N 25°47' W 079°42'611.2
2019-Jun-07 06:00N 25°41' W 079°41'611.9
2019-Jun-07 05:30N 25°35' W 079°40'611.9
2019-Jun-07 05:00N 25°29' W 079°40'611.9
2019-Jun-07 04:30N 25°23' W 079°40'611.8
2019-Jun-07 03:59N 25°17' W 079°40'8 1.1
2019-Jun-06 20:33N 25°24' W 079°34'0 7.4
2019-Jun-06 20:29N 25°24' W 079°34'4 7.4
2019-Jun-06 19:59N 25°28' W 079°35'4 7.3
2019-Jun-06 19:30N 25°31' W 079°35'4 7.2
2019-Jun-06 18:59N 25°35' W 079°36'3 7.1
2019-Jun-06 18:30N 25°39' W 079°36'4 7.1
2019-Jun-06 18:00N 25°42' W 079°36'3 7.0
2019-Jun-06 17:30N 25°46' W 079°35'4 7.4
2019-Jun-06 17:00N 25°49' W 079°34'4 7.5
2019-Jun-06 16:30N 25°52' W 079°32'4 7.7
2019-Jun-06 16:00N 25°56' W 079°30'4 7.9
2019-Jun-06 15:29N 25°59' W 079°28'4 7.3
2019-Jun-06 15:00N 26°03' W 079°26'4 7.3
2019-Jun-06 14:30N 26°06' W 079°24'4 7.4
2019-Jun-06 14:00N 26°09' W 079°22'5 9.9
2019-Jun-06 13:30N 26°13' W 079°19'107 9.3
2019-Jun-06 02:00N 25°18' W 077°36'   090 / 161023.2 27.0

Dump ship's entire track history